createdAt,value
2017-08-11T00:01:04.160Z,11.37
2017-08-11T00:03:32.545Z,10.83
2017-08-11T00:06:00.168Z,12.07
2017-08-11T00:08:27.708Z,11.80
2017-08-11T00:10:55.322Z,10.80
2017-08-11T00:13:23.876Z,10.73
2017-08-11T00:15:52.169Z,11.20
2017-08-11T00:18:20.165Z,10.20
2017-08-11T00:20:47.729Z,9.60
2017-08-11T00:23:15.314Z,9.33
2017-08-11T00:25:42.979Z,9.27
2017-08-11T00:28:10.676Z,9.00
2017-08-11T00:30:38.449Z,8.23
2017-08-11T00:33:05.988Z,8.90
2017-08-11T00:35:33.618Z,10.00
2017-08-11T00:38:01.177Z,10.50
2017-08-11T00:40:28.716Z,10.53
2017-08-11T00:42:57.136Z,8.97
2017-08-11T00:45:24.744Z,9.87
2017-08-11T00:47:52.407Z,9.20
2017-08-11T00:50:20.072Z,9.97
2017-08-11T00:52:48.221Z,10.00
2017-08-11T00:55:15.814Z,9.27
2017-08-11T00:57:43.421Z,9.00
2017-08-11T01:00:11.021Z,9.80
2017-08-11T01:02:38.645Z,8.93
2017-08-11T01:05:06.299Z,9.10
2017-08-11T01:07:33.855Z,8.57
2017-08-11T01:10:01.402Z,8.97
2017-08-11T01:12:33.261Z,9.27
2017-08-11T01:15:02.730Z,9.17
2017-08-11T01:17:31.133Z,8.00
2017-08-11T01:19:58.763Z,7.57
2017-08-11T01:22:27.173Z,8.33
2017-08-11T01:24:54.818Z,8.67
2017-08-11T01:27:22.389Z,8.50
2017-08-11T01:29:50.742Z,9.30
2017-08-11T01:32:19.064Z,9.10
2017-08-11T01:34:46.692Z,8.20
2017-08-11T01:37:14.249Z,7.73
2017-08-11T01:39:41.863Z,5.30
2017-08-11T01:42:09.484Z,5.90
2017-08-11T01:44:37.101Z,8.20
2017-08-11T01:47:04.721Z,8.57
2017-08-11T01:49:32.546Z,6.40
2017-08-11T01:52:00.174Z,5.70
2017-08-11T01:54:28.116Z,6.83
2017-08-11T01:56:55.751Z,6.73
2017-08-11T01:59:23.297Z,5.93
2017-08-11T02:01:50.893Z,5.60
2017-08-11T02:04:18.485Z,4.93
2017-08-11T02:06:46.069Z,5.30
2017-08-11T02:09:13.871Z,5.90
2017-08-11T02:11:41.445Z,5.70
2017-08-11T02:14:09.042Z,5.17
2017-08-11T02:16:36.581Z,5.70
2017-08-11T02:19:04.219Z,5.70
2017-08-11T02:21:32.519Z,6.23
2017-08-11T02:24:00.293Z,5.73
2017-08-11T02:26:27.910Z,5.73
2017-08-11T02:28:55.447Z,5.60
2017-08-11T02:31:22.981Z,5.80
2017-08-11T02:33:50.548Z,6.53
2017-08-11T02:36:18.097Z,5.93
2017-08-11T02:38:45.632Z,5.90
2017-08-11T02:41:13.222Z,6.23
2017-08-11T02:43:40.761Z,6.50
2017-08-11T02:46:08.381Z,6.63
2017-08-11T02:48:35.954Z,6.40
2017-08-11T02:51:03.496Z,7.17
2017-08-11T02:53:31.040Z,7.47
2017-08-11T02:55:58.924Z,6.70
2017-08-11T02:58:26.532Z,6.93
2017-08-11T03:00:54.077Z,7.30
2017-08-11T03:03:21.840Z,7.33
2017-08-11T03:05:50.141Z,7.00
2017-08-11T03:08:17.754Z,7.80
2017-08-11T03:10:45.320Z,7.87
2017-08-11T03:13:12.921Z,8.07
2017-08-11T03:15:40.461Z,7.50
2017-08-11T03:18:08.082Z,6.60
2017-08-11T03:20:35.626Z,6.97
2017-08-11T03:23:03.169Z,7.47
2017-08-11T03:25:30.761Z,7.60
2017-08-11T03:27:58.350Z,8.27
2017-08-11T03:30:26.249Z,6.80
2017-08-11T03:32:53.813Z,6.70
2017-08-11T03:35:21.444Z,6.30
2017-08-11T03:37:49.081Z,5.80
2017-08-11T03:40:16.707Z,7.80
2017-08-11T03:42:44.292Z,7.27
2017-08-11T03:45:12.093Z,5.97
2017-08-11T03:47:39.749Z,6.57
2017-08-11T03:50:08.060Z,6.40
2017-08-11T03:52:35.661Z,7.67
2017-08-11T03:55:03.248Z,7.00
2017-08-11T03:57:31.391Z,6.90
2017-08-11T03:59:58.950Z,7.13
2017-08-11T04:02:26.591Z,7.07
2017-08-11T04:04:54.146Z,7.03
2017-08-11T04:07:21.693Z,7.33
2017-08-11T04:09:49.340Z,7.10
2017-08-11T04:12:16.881Z,8.03
2017-08-11T04:14:44.422Z,7.77
2017-08-11T04:17:12.024Z,7.33
2017-08-11T04:19:39.648Z,7.50
2017-08-11T04:22:07.208Z,6.67
2017-08-11T04:24:34.835Z,6.90
2017-08-11T04:27:02.440Z,6.93
2017-08-11T04:29:30.831Z,7.60
2017-08-11T04:31:59.211Z,7.60
2017-08-11T04:34:27.574Z,7.60
2017-08-11T04:36:55.967Z,7.20
2017-08-11T04:39:23.558Z,8.10
2017-08-11T04:41:51.091Z,7.80
2017-08-11T04:44:18.632Z,8.43
2017-08-11T04:46:46.204Z,10.27
2017-08-11T04:49:13.745Z,9.60
2017-08-11T04:51:41.288Z,9.97
2017-08-11T04:54:08.892Z,9.50
2017-08-11T04:56:36.452Z,9.37
2017-08-11T04:59:04.036Z,9.63
2017-08-11T05:01:31.600Z,9.90
2017-08-11T05:03:59.141Z,8.97
2017-08-11T05:06:26.693Z,9.47
2017-08-11T05:08:55.077Z,8.53
2017-08-11T05:11:23.390Z,9.87
2017-08-11T05:13:50.932Z,9.00
2017-08-11T05:16:18.534Z,7.77
2017-08-11T05:18:46.078Z,9.27
2017-08-11T05:21:13.685Z,9.60
2017-08-11T05:23:41.259Z,10.00
2017-08-11T05:26:08.801Z,9.37
2017-08-11T05:28:36.417Z,8.80
2017-08-11T05:31:04.001Z,8.93
2017-08-11T05:33:31.565Z,9.00
2017-08-11T05:35:59.109Z,10.33
2017-08-11T05:38:26.733Z,10.10
2017-08-11T05:40:54.272Z,10.70
2017-08-11T05:43:21.818Z,10.47
2017-08-11T05:45:49.410Z,11.47
2017-08-11T05:48:17.146Z,9.70
2017-08-11T05:50:45.458Z,10.33
2017-08-11T05:53:13.052Z,9.20
2017-08-11T05:55:40.609Z,11.03
2017-08-11T05:58:08.161Z,9.87
2017-08-11T06:00:36.284Z,10.57
2017-08-11T06:03:04.602Z,10.57
2017-08-11T06:05:32.156Z,10.90
2017-08-11T06:07:59.729Z,11.63
2017-08-11T06:10:27.312Z,11.00
2017-08-11T06:12:54.856Z,12.97
2017-08-11T06:15:22.639Z,11.90
2017-08-11T06:17:50.189Z,11.50
2017-08-11T06:20:18.014Z,12.70
2017-08-11T06:22:45.611Z,12.67
2017-08-11T06:25:13.158Z,10.97
2017-08-11T06:27:40.700Z,11.73
2017-08-11T06:30:08.329Z,10.87
2017-08-11T06:32:35.872Z,11.90
2017-08-11T06:35:03.425Z,11.17
2017-08-11T06:37:31.013Z,11.40
2017-08-11T06:39:58.569Z,10.73
2017-08-11T06:42:26.125Z,11.00
2017-08-11T06:44:53.724Z,10.20
2017-08-11T06:47:21.280Z,10.80
2017-08-11T06:49:48.829Z,11.67
2017-08-11T06:52:16.451Z,11.63
2017-08-11T06:54:44.013Z,12.70
2017-08-11T06:57:11.565Z,11.83
2017-08-11T06:59:39.129Z,14.43
2017-08-11T07:02:07.104Z,14.23
2017-08-11T07:04:34.749Z,13.20
2017-08-11T07:07:02.352Z,15.70
2017-08-11T07:09:29.893Z,13.43
2017-08-11T07:11:57.457Z,15.47
2017-08-11T07:14:25.805Z,14.20
2017-08-11T07:16:53.373Z,14.77
2017-08-11T07:19:20.921Z,12.87
2017-08-11T07:21:48.517Z,11.40
2017-08-11T07:24:16.066Z,11.70
2017-08-11T07:26:43.641Z,13.17
2017-08-11T07:29:11.770Z,12.10
2017-08-11T07:31:39.358Z,12.97
2017-08-11T07:34:06.943Z,12.60
2017-08-11T07:36:34.565Z,12.10
2017-08-11T07:39:02.142Z,11.50
2017-08-11T07:41:29.705Z,11.40
2017-08-11T07:43:57.309Z,11.87
2017-08-11T07:46:24.877Z,11.30
2017-08-11T07:48:52.446Z,21.00
2017-08-11T07:51:20.417Z,12.67
2017-08-11T07:53:47.982Z,11.47
2017-08-11T07:56:15.545Z,12.40
2017-08-11T07:58:43.153Z,13.40
2017-08-11T08:01:11.789Z,24.20
2017-08-11T08:03:39.545Z,24.20
2017-08-11T08:06:07.155Z,16.20
2017-08-11T08:08:34.721Z,15.00
2017-08-11T08:11:02.302Z,13.40
2017-08-11T08:13:29.947Z,12.97
2017-08-11T08:15:57.530Z,14.50
2017-08-11T08:18:25.095Z,14.13
2017-08-11T08:20:52.694Z,15.00
2017-08-11T08:23:20.270Z,13.37
2017-08-11T08:25:47.835Z,14.00
2017-08-11T08:28:15.565Z,13.60
2017-08-11T08:30:43.129Z,13.97
2017-08-11T08:33:10.700Z,13.50
2017-08-11T08:35:38.345Z,15.60
2017-08-11T08:38:06.182Z,15.03
2017-08-11T08:40:33.744Z,14.70
2017-08-11T08:43:01.340Z,15.30
2017-08-11T08:45:28.917Z,14.20
2017-08-11T08:47:56.488Z,14.80
2017-08-11T08:50:24.082Z,14.00
2017-08-11T08:52:51.653Z,16.63
2017-08-11T08:55:19.256Z,16.50
2017-08-11T08:57:46.901Z,17.03
2017-08-11T09:00:14.475Z,18.57
2017-08-11T09:02:42.050Z,19.10
2017-08-11T09:05:09.890Z,20.50
2017-08-11T09:07:37.450Z,18.70
2017-08-11T09:10:05.010Z,19.97
2017-08-11T09:12:32.621Z,21.00
2017-08-11T09:15:00.194Z,20.13
2017-08-11T09:17:27.753Z,19.00
2017-08-11T09:19:55.361Z,20.50
2017-08-11T09:22:22.921Z,20.03
2017-08-11T09:25:02.245Z,19.53
2017-08-11T09:27:41.608Z,19.70
2017-08-11T09:30:20.912Z,20.60
2017-08-11T09:33:00.231Z,20.00
2017-08-11T09:35:50.490Z,18.97
2017-08-11T09:38:18.817Z,20.23
2017-08-11T09:40:46.500Z,20.70
2017-08-11T09:43:14.102Z,20.90
2017-08-11T09:45:42.406Z,21.70
2017-08-11T09:48:09.949Z,21.27
2017-08-11T09:50:37.517Z,22.40
2017-08-11T09:53:05.096Z,24.33
2017-08-11T14:29:18.417Z,25.23
2017-08-11T14:31:46.043Z,15.53
2017-08-11T14:34:13.629Z,17.27
2017-08-11T14:36:42.096Z,17.37
2017-08-11T14:39:09.684Z,15.03
2017-08-11T14:41:37.278Z,16.90
2017-08-11T14:44:04.885Z,15.10
2017-08-11T14:46:32.444Z,15.37
2017-08-11T14:49:00.759Z,15.47
2017-08-11T14:51:28.335Z,15.67
2017-08-11T14:53:56.093Z,15.67
2017-08-11T14:56:23.646Z,16.70
2017-08-11T14:58:54.700Z,18.70
2017-08-11T15:01:22.245Z,16.37
2017-08-11T15:03:49.797Z,18.73
2017-08-11T15:06:17.395Z,18.50
2017-08-11T15:08:44.937Z,14.00
2017-08-11T15:11:12.485Z,12.73
2017-08-11T15:13:40.802Z,10.80
2017-08-11T15:16:08.351Z,11.20
2017-08-11T15:18:36.021Z,10.77
2017-08-11T15:21:03.588Z,10.70
2017-08-11T15:23:31.227Z,10.53
2017-08-11T15:25:59.116Z,10.20
2017-08-11T15:28:26.782Z,11.33
2017-08-11T15:30:54.861Z,9.83
2017-08-11T15:33:23.309Z,10.70
2017-08-11T15:35:50.880Z,9.13
2017-08-11T15:38:18.471Z,9.70
2017-08-11T15:40:46.028Z,9.37
2017-08-11T15:43:14.353Z,8.57
2017-08-11T15:45:42.044Z,9.40
2017-08-11T15:48:09.620Z,9.30
2017-08-11T15:50:38.288Z,9.13
2017-08-11T15:53:05.828Z,8.97
2017-08-11T15:55:41.612Z,9.10
2017-08-11T15:58:09.202Z,10.20
2017-08-11T16:00:37.910Z,9.47
2017-08-11T16:03:05.452Z,8.53
2017-08-11T16:05:35.300Z,8.83
2017-08-11T16:17:09.890Z,14.03
2017-08-11T16:19:37.622Z,16.90
2017-08-11T16:24:59.051Z,7.43
2017-08-11T16:27:32.914Z,8.80
2017-08-11T16:30:00.586Z,7.97
2017-08-11T16:32:28.226Z,8.67
2017-08-11T16:34:55.858Z,8.30
2017-08-11T16:37:25.853Z,7.23
2017-08-11T16:39:53.477Z,7.77
2017-08-11T16:42:21.102Z,12.37
2017-08-11T16:44:50.393Z,7.63
2017-08-11T16:47:17.984Z,7.40
2017-08-11T16:49:46.309Z,7.73
2017-08-11T16:52:13.947Z,7.80
2017-08-11T16:54:41.677Z,7.70
2017-08-11T16:57:10.000Z,7.90
2017-08-11T16:59:37.582Z,8.70
2017-08-11T17:02:05.125Z,8.43
2017-08-11T17:04:32.681Z,8.07
2017-08-11T17:07:00.370Z,8.10
2017-08-11T17:09:27.928Z,7.40
2017-08-11T17:11:55.481Z,7.20
2017-08-11T17:14:23.076Z,9.53
2017-08-11T17:16:53.448Z,6.07
2017-08-11T17:19:20.988Z,6.50
2017-08-11T17:21:48.568Z,7.00
2017-08-11T17:24:16.109Z,6.07
2017-08-11T17:26:43.653Z,5.23
2017-08-11T17:29:11.285Z,4.60
2017-08-11T17:31:38.845Z,5.40
2017-08-11T17:34:06.409Z,5.70
2017-08-11T17:36:34.030Z,4.50
2017-08-11T17:39:02.352Z,4.50
2017-08-11T17:41:30.109Z,4.57
2017-08-11T17:43:57.689Z,3.93
2017-08-11T17:46:25.249Z,4.80
2017-08-11T17:48:52.813Z,4.33
2017-08-11T17:51:20.491Z,4.57
2017-08-11T17:53:48.274Z,4.73
2017-08-11T17:56:16.741Z,4.80
2017-08-11T17:58:44.419Z,3.80
2017-08-11T18:01:11.972Z,3.83
2017-08-11T18:03:39.656Z,4.60
2017-08-11T18:06:07.326Z,3.67
2017-08-11T18:08:34.933Z,4.40
2017-08-11T18:11:02.520Z,4.20
2017-08-11T18:13:30.085Z,4.27
2017-08-11T18:15:57.688Z,4.20
2017-08-11T18:18:25.234Z,4.30
2017-08-11T18:20:52.841Z,4.20
2017-08-11T18:23:20.390Z,4.87
2017-08-11T18:25:48.044Z,4.33
2017-08-11T18:28:15.621Z,4.60
2017-08-11T18:30:43.663Z,4.87
2017-08-11T18:33:11.279Z,4.90
2017-08-11T18:35:38.857Z,4.70
2017-08-11T18:38:06.438Z,5.03
2017-08-11T18:40:33.998Z,5.30
2017-08-11T18:43:01.642Z,9.07
2017-08-11T18:45:29.207Z,7.50
2017-08-11T18:47:56.757Z,8.63
2017-08-11T18:50:24.433Z,5.80
2017-08-11T18:52:52.019Z,5.87
2017-08-11T18:55:19.586Z,6.50
2017-08-11T18:57:47.221Z,9.20
2017-08-11T19:00:14.787Z,6.10
2017-08-11T19:02:42.361Z,6.20
2017-08-11T19:05:10.043Z,9.00
2017-08-11T19:07:37.598Z,5.20
2017-08-11T19:10:05.939Z,4.10
2017-08-11T19:12:34.990Z,5.50
2017-08-11T19:15:02.603Z,5.43
2017-08-11T19:17:30.638Z,6.17
2017-08-11T19:19:58.533Z,4.53
2017-08-11T19:22:26.713Z,4.30
2017-08-11T19:24:54.304Z,4.73
2017-08-11T19:27:21.995Z,3.70
2017-08-11T19:29:50.242Z,3.57
2017-08-11T19:32:18.477Z,3.90
2017-08-11T19:34:46.106Z,3.87
2017-08-11T19:37:13.781Z,4.53
2017-08-11T19:39:41.392Z,4.77
2017-08-11T19:42:09.778Z,4.90
2017-08-11T19:44:37.340Z,4.23
2017-08-11T19:47:04.891Z,4.77
2017-08-11T19:49:32.508Z,4.17
2017-08-11T19:52:00.049Z,5.10
2017-08-11T19:54:29.111Z,4.87
2017-08-11T19:56:56.693Z,3.70
2017-08-11T19:59:24.302Z,3.53
2017-08-11T20:01:51.854Z,4.30
2017-08-11T20:04:20.197Z,4.97
2017-08-11T20:06:47.800Z,4.37
2017-08-11T20:09:15.336Z,4.33
2017-08-11T20:11:42.929Z,3.60
2017-08-11T20:14:10.469Z,4.50
2017-08-11T20:16:38.026Z,9.30
2017-08-11T20:19:06.151Z,14.40
2017-08-11T20:21:33.873Z,7.70
2017-08-11T20:24:01.455Z,8.37
2017-08-11T20:26:29.942Z,7.40
2017-08-11T20:28:57.508Z,6.10
2017-08-11T20:31:25.171Z,7.40
2017-08-11T20:33:53.835Z,7.20
2017-08-11T20:36:21.385Z,5.50
2017-08-11T20:38:48.926Z,5.03
2017-08-11T20:41:16.525Z,4.90
2017-08-11T20:43:44.086Z,5.13
2017-08-11T20:46:11.623Z,4.53
2017-08-11T20:48:40.027Z,4.50
2017-08-11T20:51:07.633Z,3.90
2017-08-11T20:53:35.185Z,4.20
2017-08-11T20:56:02.836Z,3.90
2017-08-11T20:58:30.433Z,4.90
2017-08-11T21:00:58.777Z,4.93
2017-08-11T21:03:26.734Z,5.40
2017-08-11T21:05:54.339Z,4.70
2017-08-11T21:08:22.766Z,4.93
2017-08-11T21:10:50.765Z,4.60
2017-08-11T21:13:18.306Z,4.90
2017-08-11T21:15:45.845Z,4.97
2017-08-11T21:18:13.436Z,5.63
2017-08-11T21:20:40.972Z,5.90
2017-08-11T21:23:08.556Z,5.70
2017-08-11T21:25:36.133Z,6.53
2017-08-11T21:28:03.673Z,6.60
2017-08-11T21:30:31.209Z,7.40
2017-08-11T21:32:58.841Z,7.33
2017-08-11T21:35:26.922Z,8.93
2017-08-11T21:37:55.229Z,8.80
2017-08-11T21:40:22.904Z,12.23
2017-08-11T21:42:50.452Z,8.50
2017-08-11T21:45:18.089Z,12.20
2017-08-11T21:47:45.664Z,9.50
2017-08-11T21:50:13.205Z,11.37
2017-08-11T21:52:40.754Z,12.90
2017-08-11T21:55:08.345Z,12.70
2017-08-11T21:57:35.893Z,13.07
2017-08-11T22:00:03.436Z,11.50
2017-08-11T22:02:31.072Z,10.70
2017-08-11T22:04:58.621Z,11.07
2017-08-11T22:07:26.169Z,12.00
2017-08-11T22:09:53.748Z,12.27
2017-08-11T22:12:21.297Z,12.73
2017-08-11T22:14:48.897Z,17.60
2017-08-11T22:17:16.505Z,16.67
2017-08-11T22:19:44.057Z,15.30
2017-08-11T22:22:11.604Z,13.47
2017-08-11T22:24:39.209Z,14.40
2017-08-11T22:27:06.760Z,13.43
2017-08-11T22:29:34.305Z,13.27
2017-08-11T22:32:06.562Z,13.40
2017-08-11T22:34:34.140Z,13.37
2017-08-11T22:37:03.784Z,12.33
2017-08-11T22:39:31.348Z,14.07
2017-08-11T22:41:59.457Z,12.87
2017-08-11T22:44:27.008Z,12.17
2017-08-11T22:46:54.873Z,13.03
2017-08-11T22:49:22.432Z,13.57
2017-08-11T22:51:49.985Z,13.33
2017-08-11T22:54:17.568Z,14.50
2017-08-11T22:56:45.117Z,13.47
2017-08-11T22:59:12.737Z,13.27
2017-08-11T23:01:40.306Z,13.30
2017-08-11T23:04:07.853Z,12.90
2017-08-11T23:06:35.398Z,11.40
2017-08-11T23:09:03.037Z,12.90
2017-08-11T23:11:30.591Z,11.70
2017-08-11T23:13:58.133Z,12.27
2017-08-11T23:16:25.705Z,12.10
2017-08-11T23:18:53.255Z,11.57
2017-08-11T23:21:20.851Z,11.53
2017-08-11T23:23:48.433Z,12.40
2017-08-11T23:26:15.978Z,13.33
2017-08-11T23:28:43.541Z,11.60
2017-08-11T23:31:11.152Z,12.47
2017-08-11T23:33:38.696Z,12.07
2017-08-11T23:36:07.013Z,11.30
2017-08-11T23:38:35.100Z,11.77
2017-08-11T23:41:02.648Z,11.73
2017-08-11T23:43:30.205Z,12.57
2017-08-11T23:45:57.784Z,12.00
2017-08-11T23:48:25.353Z,12.30
2017-08-11T23:50:52.900Z,13.30
2017-08-11T23:53:20.514Z,14.03
2017-08-11T23:55:48.832Z,12.43
2017-08-11T23:58:16.393Z,13.50
